Time;durP1;ratioP1;P1;durP2;ratioP2;P2;SDS_P1;SDS_P2;PMS_P1;PMS_P2;Temp;Humidity;BMP_temperature;BMP_pressure;BME280_temperature;BME280_humidity;BME280_pressure;Samples;Min_cycle;Max_cycle;Signal;HPM_P1;HPM_P2
2021/12/07 00:00:27;;;;;;;29.88;15.48;;;;;;;2.44;100.00;100452.38;10246419;29;20055;-64
2021/12/07 00:05:50;;;;;;;26.85;15.02;;;;;;;2.47;100.00;100452.25;10257449;28;20047;-64
2021/12/07 00:11:12;;;;;;;30.70;16.02;;;;;;;2.50;100.00;100455.53;10254904;28;20491;-65
2021/12/07 00:16:34;;;;;;;29.55;15.93;;;;;;;2.44;100.00;100452.38;10262184;28;20055;-64
2021/12/07 00:21:56;;;;;;;27.23;15.32;;;;;;;2.47;100.00;100447.13;10269142;28;20617;-64
2021/12/07 00:27:18;;;;;;;26.27;15.52;;;;;;;2.41;100.00;100442.19;10262227;28;20051;-64
2021/12/07 00:32:45;;;;;;;29.33;16.15;;;;;;;2.52;100.00;100437.47;10271110;28;20408;-64
2021/12/07 00:38:17;;;;;;;26.98;15.27;;;;;;;2.54;100.00;100436.53;10303533;28;20061;-64
2021/12/07 00:43:38;;;;;;;28.73;15.32;;;;;;;2.54;100.00;100433.09;10302955;28;20043;-64
2021/12/07 00:49:01;;;;;;;27.90;15.32;;;;;;;2.48;100.00;100430.75;10303261;28;20055;-64
2021/12/07 00:54:22;;;;;;;29.20;15.60;;;;;;;2.58;100.00;100432.09;10289118;28;20045;-64
2021/12/07 00:59:44;;;;;;;25.23;15.10;;;;;;;2.60;100.00;100430.31;10303562;28;20061;-64
2021/12/07 01:05:14;;;;;;;27.83;15.30;;;;;;;2.62;100.00;100436.25;10301763;28;20057;-65
2021/12/07 01:27:37;;;;;;;25.88;14.85;;;;;;;2.69;100.00;100435.09;10289387;28;20050;-64
2021/12/07 01:44:39;;;;;;;27.98;15.43;;;;;;;2.73;100.00;100439.22;10301273;28;20063;-66
2021/12/07 01:50:23;;;;;;;26.50;14.82;;;;;;;2.77;100.00;100443.31;10302625;28;20559;-64
2021/12/07 02:01:25;;;;;;;24.98;15.75;;;;;;;2.88;100.00;100449.75;10296272;28;20069;-64
2021/12/07 02:06:47;;;;;;;26.75;16.10;;;;;;;2.95;100.00;100452.00;10277822;28;20046;-64
2021/12/07 02:12:11;;;;;;;29.23;16.35;;;;;;;2.98;100.00;100457.03;10305985;28;20069;-64
2021/12/07 02:17:34;;;;;;;27.15;15.07;;;;;;;2.91;100.00;100465.88;10282177;28;20047;-64
2021/12/07 02:22:56;;;;;;;23.52;15.10;;;;;;;2.84;100.00;100469.63;10308854;28;20053;-64
2021/12/07 02:28:17;;;;;;;26.85;16.27;;;;;;;2.77;100.00;100467.34;10308290;28;20062;-64
2021/12/07 02:33:39;;;;;;;26.58;16.48;;;;;;;2.74;100.00;100462.31;10306424;28;20056;-64
2021/12/07 02:39:04;;;;;;;24.00;15.63;;;;;;;2.63;100.00;100472.19;10298022;28;20400;-65
2021/12/07 02:44:25;;;;;;;27.35;16.35;;;;;;;2.55;100.00;100474.19;10307273;28;20046;-65
2021/12/07 02:49:48;;;;;;;26.63;16.58;;;;;;;2.55;100.00;100478.50;10308226;28;20058;-65
2021/12/07 02:55:13;;;;;;;28.75;17.33;;;;;;;2.49;100.00;100476.16;10307065;28;20579;-65
2021/12/07 03:00:43;;;;;;;30.08;17.23;;;;;;;2.36;100.00;100480.94;10306943;28;20054;-65
2021/12/07 03:28:40;;;;;;;32.33;17.15;;;;;;;2.38;100.00;100498.88;10279611;28;20058;-64
2021/12/07 03:34:02;;;;;;;30.50;18.13;;;;;;;2.18;100.00;100501.34;10294386;28;20047;-64
2021/12/07 03:39:24;;;;;;;32.25;18.27;;;;;;;2.24;100.00;100490.81;10294789;28;20076;-64
2021/12/07 03:44:45;;;;;;;30.58;17.80;;;;;;;2.21;100.00;100496.06;10285592;28;20042;-65
2021/12/07 03:50:09;;;;;;;29.55;17.73;;;;;;;2.28;100.00;100502.69;10265511;28;20054;-65
2021/12/07 03:55:32;;;;;;;29.80;19.08;;;;;;;2.22;100.00;100492.59;10290725;28;20049;-65
2021/12/07 04:00:54;;;;;;;30.02;16.88;;;;;;;2.19;100.00;100497.84;10288715;28;20063;-66
2021/12/07 04:06:18;;;;;;;34.40;18.38;;;;;;;2.27;100.00;100501.00;10303097;28;20601;-65
2021/12/07 04:11:39;;;;;;;37.65;19.60;;;;;;;2.25;100.00;100505.34;10297966;28;20059;-66
2021/12/07 04:17:01;;;;;;;33.00;18.15;;;;;;;2.35;100.00;100504.97;10304750;28;20376;-64
2021/12/07 04:22:23;;;;;;;30.90;16.73;;;;;;;2.34;100.00;100512.72;10269097;28;20047;-65
2021/12/07 04:27:45;;;;;;;35.90;18.10;;;;;;;2.29;100.00;100509.50;10260523;28;20054;-65
2021/12/07 04:33:10;;;;;;;32.25;18.42;;;;;;;2.28;100.00;100512.97;10303970;28;20054;-65
2021/12/07 04:38:32;;;;;;;33.33;18.67;;;;;;;2.31;100.00;100526.53;10277628;28;20637;-64
2021/12/07 04:43:53;;;;;;;32.95;19.10;;;;;;;2.33;100.00;100521.38;10285981;28;20723;-64
2021/12/07 05:00:28;;;;;;;33.97;18.48;;;;;;;2.40;100.00;100525.38;10280704;28;20057;-64
2021/12/07 05:05:52;;;;;;;35.25;18.88;;;;;;;2.34;100.00;100539.28;10289005;28;20133;-65
2021/12/07 05:39:09;;;;;;;38.25;20.48;;;;;;;2.42;100.00;100550.13;10249236;29;20055;-64
2021/12/07 05:44:30;;;;;;;34.45;19.27;;;;;;;2.48;100.00;100554.22;10282958;28;20046;-65
2021/12/07 05:49:52;;;;;;;35.22;18.90;;;;;;;2.46;100.00;100558.59;10288019;28;20058;-65
2021/12/07 05:55:14;;;;;;;33.15;19.92;;;;;;;2.63;100.00;100572.50;10301547;28;20062;-64
2021/12/07 06:00:37;;;;;;;33.42;19.65;;;;;;;2.65;100.00;100575.00;10287749;28;20061;-64
2021/12/07 06:06:03;;;;;;;38.88;20.95;;;;;;;2.49;100.00;100579.03;10287030;28;20507;-64
2021/12/07 06:11:25;;;;;;;35.90;19.83;;;;;;;2.55;100.00;100594.25;10287394;28;20086;-64
2021/12/07 06:16:48;;;;;;;35.53;20.80;;;;;;;2.64;100.00;100599.06;10287791;28;20080;-64
2021/12/07 06:22:09;;;;;;;40.42;21.83;;;;;;;2.59;100.00;100603.56;10301024;28;20054;-66
2021/12/07 06:27:32;;;;;;;39.33;21.33;;;;;;;2.68;100.00;100613.50;10300525;28;20057;-64
2021/12/07 06:32:53;;;;;;;40.95;21.33;;;;;;;2.68;100.00;100613.50;10287607;28;20051;-65
2021/12/07 06:38:18;;;;;;;37.65;21.65;;;;;;;2.73;100.00;100630.44;10290170;28;20479;-64
2021/12/07 06:43:40;;;;;;;39.92;22.35;;;;;;;2.69;100.00;100631.47;10305649;28;20525;-65
2021/12/07 06:49:03;;;;;;;37.08;22.05;;;;;;;2.65;100.00;100618.75;10307865;28;20049;-65
2021/12/07 06:54:25;;;;;;;38.33;21.42;;;;;;;2.78;100.00;100625.97;10307620;28;20530;-64
2021/12/07 06:59:47;;;;;;;39.22;22.42;;;;;;;2.78;100.00;100627.69;10308229;28;20059;-65
2021/12/07 07:05:09;;;;;;;38.45;21.73;;;;;;;2.84;100.00;100634.31;10306128;28;20057;-64
2021/12/07 07:10:31;;;;;;;37.65;23.23;;;;;;;2.86;100.00;100631.69;10307781;28;20058;-65
2021/12/07 07:15:53;;;;;;;39.22;22.13;;;;;;;2.83;100.00;100648.09;10296284;28;20455;-64
2021/12/07 07:21:15;;;;;;;35.78;21.30;;;;;;;2.90;100.00;100649.56;10280961;28;20055;-65
2021/12/07 07:26:37;;;;;;;34.60;20.77;;;;;;;2.94;100.00;100647.69;10252706;28;20125;-64
2021/12/07 07:31:59;;;;;;;41.70;22.65;;;;;;;2.95;100.00;100652.78;10271926;28;20050;-65
2021/12/07 07:37:20;;;;;;;34.30;20.35;;;;;;;3.03;100.00;100666.22;10306847;28;20057;-64
2021/12/07 07:42:43;;;;;;;38.83;21.48;;;;;;;3.02;100.00;100668.84;10290758;28;20115;-65
2021/12/07 07:48:05;;;;;;;36.83;20.88;;;;;;;3.04;100.00;100667.91;10305619;28;20526;-65
2021/12/07 07:53:26;;;;;;;35.75;20.42;;;;;;;3.07;100.00;100672.91;10292582;28;20410;-65
2021/12/07 07:58:48;;;;;;;31.85;18.70;;;;;;;3.16;100.00;100671.75;10292518;28;20407;-64
2021/12/07 08:04:10;;;;;;;32.92;18.63;;;;;;;3.17;100.00;100689.72;10304970;28;20058;-64
2021/12/07 08:09:31;;;;;;;34.60;18.30;;;;;;;3.19;100.00;100687.09;10269905;28;20058;-64
2021/12/07 08:14:53;;;;;;;26.98;17.35;;;;;;;3.31;100.00;100696.94;10276547;28;20051;-65
2021/12/07 08:20:15;;;;;;;29.98;16.33;;;;;;;3.26;100.00;100694.53;10278229;28;20059;-64
2021/12/07 08:25:41;;;;;;;27.50;16.63;;;;;;;3.16;100.00;100706.06;10297139;28;20058;-64
2021/12/07 08:31:03;;;;;;;;;;;;;;;3.32;100.00;100701.19;10304981;28;20057;-64
2021/12/07 08:36:25;;;;;;;25.40;16.23;;;;;;;3.22;100.00;100703.25;10317440;28;19926;-65
2021/12/07 08:41:46;;;;;;;28.77;16.73;;;;;;;3.32;100.00;100703.75;10303622;28;20053;-65
2021/12/07 08:47:08;;;;;;;29.23;15.73;;;;;;;3.30;100.00;100716.72;10288686;28;20050;-65
2021/12/07 08:52:31;;;;;;;28.52;16.20;;;;;;;3.23;100.00;100720.38;10269440;28;20051;-65
2021/12/07 09:03:33;;;;;;;30.30;15.65;;;;;;;3.41;100.00;100708.59;10272434;28;20042;-64
2021/12/07 09:08:56;;;;;;;27.75;16.33;;;;;;;3.47;100.00;100729.81;10273979;28;20085;-65
2021/12/07 09:14:18;;;;;;;41.15;18.10;;;;;;;3.45;100.00;100716.13;10302681;28;20061;-65
2021/12/07 09:19:41;;;;;;;35.03;17.55;;;;;;;3.55;100.00;100707.16;10289598;28;20137;-65
2021/12/07 09:25:04;;;;;;;34.70;16.98;;;;;;;3.49;100.00;100707.41;10274736;28;20404;-65
2021/12/07 09:30:26;;;;;;;30.98;17.77;;;;;;;3.64;100.00;100701.63;10248685;28;20066;-66
2021/12/07 09:35:48;;;;;;;30.52;17.13;;;;;;;3.68;100.00;100692.91;10268175;28;20418;-65
2021/12/07 09:41:11;;;;;;;35.70;17.77;;;;;;;3.67;100.00;100706.69;10273297;28;20055;-65
2021/12/07 09:46:34;;;;;;;34.33;17.13;;;;;;;3.63;100.00;100700.00;10282994;28;20049;-65
2021/12/07 09:51:56;;;;;;;31.95;17.08;;;;;;;3.69;100.00;100694.56;10258975;28;20051;-65
2021/12/07 09:57:17;;;;;;;30.52;17.38;;;;;;;3.73;100.00;100701.28;10274058;28;20054;-65
2021/12/07 10:02:39;;;;;;;32.95;17.70;;;;;;;3.72;100.00;100694.47;10267184;28;20055;-65
2021/12/07 10:08:05;;;;;;;;;;;;;;;3.72;100.00;100699.63;10300931;28;20665;-66
2021/12/07 10:13:29;;;;;;;35.22;17.33;;;;;;;3.73;100.00;100701.28;10268674;28;19921;-66
2021/12/07 10:18:52;;;;;;;36.73;17.70;;;;;;;3.87;100.00;100683.56;10288557;28;20056;-65
2021/12/07 10:24:21;;;;;;;36.95;18.60;;;;;;;3.79;100.00;100677.84;10307450;28;20049;-65
2021/12/07 10:29:43;;;;;;;32.90;17.55;;;;;;;3.66;100.00;100674.06;10292303;28;20085;-65
2021/12/07 10:35:26;;;;;;;34.75;17.92;;;;;;;3.89;100.00;100676.59;10269083;28;20078;-65
2021/12/07 10:40:59;;;;;;;31.10;18.15;;;;;;;3.95;100.00;100676.34;10280537;28;20454;-65
2021/12/07 10:46:39;;;;;;;37.33;18.52;;;;;;;3.99;100.00;100673.59;10291655;28;20210;-66
2021/12/07 10:52:06;;;;;;;37.05;18.70;;;;;;;4.02;100.00;100698.41;10292752;28;20055;-66
2021/12/07 10:57:34;;;;;;;37.60;18.02;;;;;;;3.91;100.00;100705.75;10297876;28;20059;-65
2021/12/07 11:02:59;;;;;;;32.30;17.02;;;;;;;3.95;100.00;100722.75;10305903;28;20554;-64
2021/12/07 11:08:27;;;;;;;45.13;18.80;;;;;;;4.07;100.00;100711.97;10304429;28;20516;-65
2021/12/07 11:13:51;;;;;;;32.47;16.67;;;;;;;4.16;100.00;100732.22;10288330;28;20576;-65
2021/12/07 11:19:21;;;;;;;32.72;16.40;;;;;;;4.09;100.00;100726.47;10292314;28;20051;-65
2021/12/07 11:24:45;;;;;;;34.38;16.42;;;;;;;4.14;100.00;100723.69;10270015;28;20055;-66
2021/12/07 11:30:15;;;;;;;39.15;17.27;;;;;;;4.01;100.00;100722.50;10266116;28;20051;-64
2021/12/07 11:35:23;;;;;;;37.30;17.90;;;;;;;4.16;100.00;100717.56;10285890;28;20047;-65
2021/12/07 11:40:45;;;;;;;32.25;17.25;;;;;;;4.17;100.00;100710.69;10266976;28;20078;-65
2021/12/07 11:46:19;;;;;;;35.42;18.20;;;;;;;4.35;100.00;100717.69;10301996;28;20051;-65
2021/12/07 11:51:43;;;;;;;31.17;18.00;;;;;;;4.43;100.00;100711.31;10281705;28;20055;-65
2021/12/07 11:57:07;;;;;;;36.97;17.08;;;;;;;4.57;100.00;100708.13;10303581;28;20074;-66
2021/12/07 12:02:28;;;;;;;36.83;17.17;;;;;;;4.73;100.00;100697.94;10283498;28;20047;-66
2021/12/07 12:07:50;;;;;;;30.73;16.73;;;;;;;4.72;100.00;100712.66;10298774;28;20055;-65
2021/12/07 12:13:21;;;;;;;36.65;16.27;;;;;;;4.85;100.00;100694.81;10269805;28;20057;-65
2021/12/07 12:18:43;;;;;;;32.92;16.52;;;;;;;4.93;100.00;100697.94;10285791;28;20051;-66
2021/12/07 12:24:23;;;;;;;33.08;15.57;;;;;;;4.91;100.00;100693.72;10294006;28;20054;-66
2021/12/07 12:29:48;;;;;;;29.88;15.80;;;;;;;5.07;100.00;100680.06;10282131;28;20488;-65
2021/12/07 12:35:11;;;;;;;33.17;15.70;;;;;;;5.21;100.00;100682.88;10285996;28;20495;-65
2021/12/07 12:40:32;;;;;;;29.20;15.55;;;;;;;5.42;100.00;100684.47;10270134;28;20050;-67
2021/12/07 12:46:00;;;;;;;26.85;15.20;;;;;;;5.41;100.00;100680.22;10318734;28;20055;-66
2021/12/07 12:51:23;;;;;;;28.25;15.00;;;;;;;5.41;100.00;100679.38;10287749;28;20502;-65
2021/12/07 12:56:46;;;;;;;28.48;12.82;;;;;;;5.47;100.00;100664.44;10273983;28;20062;-65
2021/12/07 13:02:10;;;;;;;28.77;12.73;;;;;;;5.54;100.00;100678.72;10302533;28;20062;-65
2021/12/07 13:07:32;;;;;;;26.92;12.70;;;;;;;5.51;100.00;100665.13;10295481;28;20047;-65
2021/12/07 13:12:54;;;;;;;29.52;12.10;;;;;;;5.45;100.00;100670.59;10266542;28;20051;-65
2021/12/07 13:18:21;;;;;;;22.38;11.68;;;;;;;5.46;100.00;100667.91;10281891;28;20055;-65
2021/12/07 13:24:03;;;;;;;18.58;11.35;;;;;;;5.41;100.00;100664.69;10289305;28;20060;-65
2021/12/07 13:29:27;;;;;;;22.02;11.38;;;;;;;5.48;100.00;100660.06;10301139;28;20051;-65
2021/12/07 13:35:00;;;;;;;20.90;11.95;;;;;;;5.43;100.00;100654.31;10287097;28;20057;-65
2021/12/07 13:40:24;;;;;;;24.38;12.32;;;;;;;5.35;100.00;100654.66;10278389;28;20065;-65
2021/12/07 13:45:46;;;;;;;28.27;12.27;;;;;;;5.25;100.00;100643.06;10280154;28;20055;-65
2021/12/07 13:51:11;;;;;;;22.40;11.60;;;;;;;5.15;100.00;100659.06;10308692;28;20059;-65
2021/12/07 13:56:38;;;;;;;26.55;11.55;;;;;;;5.08;100.00;100658.50;10268509;28;20047;-65
2021/12/07 14:01:59;;;;;;;24.23;11.40;;;;;;;5.08;100.00;100660.22;10283403;28;20047;-64
2021/12/07 14:07:21;;;;;;;21.27;12.32;;;;;;;5.05;100.00;100660.38;10275353;28;20050;-65
2021/12/07 14:12:44;;;;;;;22.08;11.25;;;;;;;4.98;100.00;100670.13;10303723;28;20086;-66
2021/12/07 14:18:10;;;;;;;22.25;11.40;;;;;;;5.16;100.00;100663.31;10294806;28;20066;-66
2021/12/07 14:23:40;;;;;;;25.15;11.15;;;;;;;4.91;100.00;100662.72;10333990;28;20043;-66
2021/12/07 14:29:08;;;;;;;25.70;10.95;;;;;;;4.98;100.00;100646.88;10324649;28;20082;-64
2021/12/07 14:34:32;;;;;;;22.23;10.63;;;;;;;5.01;100.00;100641.59;10308922;28;20046;-66
2021/12/07 14:39:53;;;;;;;18.55;10.13;;;;;;;4.88;100.00;100627.56;10280765;28;20153;-65
2021/12/07 14:45:15;;;;;;;21.33;10.57;;;;;;;4.76;100.00;100622.94;10307384;28;20403;-65
2021/12/07 14:50:37;;;;;;;23.02;9.88;;;;;;;4.62;100.00;100608.13;10292275;28;20046;-65
2021/12/07 14:55:58;;;;;;;23.70;11.00;;;;;;;4.67;100.00;100616.50;10292987;28;20063;-66
2021/12/07 15:01:41;;;;;;;26.98;11.48;;;;;;;4.64;100.00;100593.41;10278162;28;20477;-65
2021/12/07 15:07:08;;;;;;;22.10;10.70;;;;;;;4.64;100.00;100606.31;10305497;28;20051;-65
2021/12/07 15:12:35;;;;;;;30.45;9.93;;;;;;;4.52;100.00;100596.50;10292068;28;20394;-65
2021/12/07 15:17:57;;;;;;;18.55;10.35;;;;;;;4.51;100.00;100589.72;10278920;28;20051;-65
2021/12/07 15:23:19;;;;;;;25.27;10.90;;;;;;;4.60;100.00;100578.97;10276815;28;20051;-66
2021/12/07 15:29:00;;;;;;;22.75;11.10;;;;;;;4.73;100.00;100565.41;10282140;28;20055;-65
2021/12/07 15:34:25;;;;;;;21.90;10.63;;;;;;;4.71;100.00;100576.72;10304832;28;20504;-65
2021/12/07 15:39:53;;;;;;;26.27;10.47;;;;;;;4.77;100.00;100573.00;10290862;28;20054;-65
2021/12/07 15:45:15;;;;;;;29.05;10.20;;;;;;;4.75;100.00;100569.63;10275555;28;20049;-64
2021/12/07 15:50:38;;;;;;;28.15;10.43;;;;;;;4.79;100.00;100568.59;10273215;28;20038;-65
2021/12/07 15:56:00;;;;;;;25.38;10.27;;;;;;;4.83;100.00;100569.28;10290472;28;20137;-64
2021/12/07 16:01:21;;;;;;;25.48;10.88;;;;;;;4.81;100.00;100569.34;10290372;28;20061;-63
2021/12/07 16:06:43;;;;;;;21.35;9.90;;;;;;;4.65;100.00;100554.63;10289628;28;20042;-64
2021/12/07 16:12:12;;;;;;;21.77;11.00;;;;;;;4.56;100.00;100556.78;10291043;28;20415;-63
2021/12/07 16:17:34;;;;;;;21.23;11.75;;;;;;;4.59;100.00;100559.22;10304231;28;20046;-64
2021/12/07 16:22:56;;;;;;;27.45;12.23;;;;;;;4.61;100.00;100562.56;10302488;28;20046;-64
2021/12/07 16:28:17;;;;;;;28.55;13.18;;;;;;;4.65;100.00;100558.97;10301986;28;20070;-65
2021/12/07 16:33:41;;;;;;;27.90;13.88;;;;;;;4.72;100.00;100553.44;10302914;28;20055;-64
2021/12/07 16:39:05;;;;;;;28.92;13.38;;;;;;;4.65;100.00;100553.78;10289097;28;20055;-65
2021/12/07 16:44:27;;;;;;;31.05;13.77;;;;;;;4.66;100.00;100555.47;10289242;28;20043;-64
2021/12/07 16:49:48;;;;;;;37.15;13.80;;;;;;;4.65;100.00;100546.88;10288391;28;20061;-64
2021/12/07 16:55:14;;;;;;;28.63;14.10;;;;;;;4.58;100.00;100539.47;10293680;28;20046;-64
2021/12/07 17:00:38;;;;;;;24.20;12.73;;;;;;;4.68;100.00;100528.69;10288806;28;20053;-66
2021/12/07 17:06:00;;;;;;;29.42;14.32;;;;;;;4.36;100.00;100516.38;10291386;28;20053;-65
2021/12/07 17:11:22;;;;;;;33.05;14.88;;;;;;;4.35;100.00;100503.56;10275930;28;20495;-65
2021/12/07 17:16:43;;;;;;;29.35;15.25;;;;;;;4.14;100.00;100491.59;10288570;28;20078;-64
2021/12/07 17:22:05;;;;;;;32.58;15.48;;;;;;;4.15;100.00;100477.78;10271989;28;20054;-64
2021/12/07 17:27:28;;;;;;;28.98;15.13;;;;;;;4.01;100.00;100459.50;10302457;28;20047;-65
2021/12/07 17:32:49;;;;;;;30.40;16.85;;;;;;;4.04;100.00;100454.22;10302611;28;20561;-64
2021/12/07 17:38:11;;;;;;;40.20;16.50;;;;;;;3.97;100.00;100445.06;10303114;28;20043;-65
2021/12/07 17:43:33;;;;;;;37.30;16.70;;;;;;;3.78;100.00;100437.31;10300173;28;20057;-64
2021/12/07 17:48:55;;;;;;;36.25;17.17;;;;;;;3.95;100.00;100428.84;10288752;28;20061;-66
2021/12/07 17:54:17;;;;;;;31.73;17.15;;;;;;;3.88;100.00;100427.44;10287853;28;20192;-63
2021/12/07 17:59:44;;;;;;;39.08;18.35;;;;;;;3.73;100.00;100416.94;10298505;28;20051;-66
2021/12/07 18:05:06;;;;;;;39.33;18.15;;;;;;;3.76;100.00;100397.06;10272579;28;20047;-65
2021/12/07 18:10:28;;;;;;;46.80;18.70;;;;;;;3.81;100.00;100387.34;10294395;28;20059;-63
2021/12/07 18:15:50;;;;;;;43.85;18.85;;;;;;;3.78;100.00;100368.63;10296355;28;20494;-64
2021/12/07 18:21:12;;;;;;;31.48;18.33;;;;;;;3.84;100.00;100374.34;10250155;28;20070;-64
2021/12/07 18:26:48;;;;;;;36.95;18.98;;;;;;;3.86;100.00;100364.81;10277435;28;20065;-64
2021/12/07 18:32:10;;;;;;;44.03;19.33;;;;;;;3.70;100.00;100368.97;10292023;28;20408;-64
2021/12/07 18:37:31;;;;;;;36.78;18.90;;;;;;;3.79;100.00;100350.50;10288976;28;20050;-64
2021/12/07 18:42:53;;;;;;;40.15;19.30;;;;;;;3.75;100.00;100336.09;10305865;28;20130;-64
2021/12/07 18:48:15;;;;;;;43.05;20.15;;;;;;;3.76;100.00;100330.03;10295396;28;20049;-65
2021/12/07 18:53:37;;;;;;;36.75;18.75;;;;;;;3.70;100.00;100320.00;10292587;28;20053;-65
2021/12/07 18:58:59;;;;;;;37.45;18.67;;;;;;;3.63;100.00;100298.00;10294692;28;20068;-64
2021/12/07 19:04:21;;;;;;;38.60;19.85;;;;;;;3.55;100.00;100288.94;10269318;28;20042;-64
2021/12/07 19:09:43;;;;;;;46.08;19.80;;;;;;;3.53;100.00;100281.25;10284333;28;20054;-64
2021/12/07 19:15:07;;;;;;;38.05;18.95;;;;;;;3.48;100.00;100262.63;10289883;28;20142;-64
2021/12/07 19:20:30;;;;;;;38.33;19.75;;;;;;;3.53;100.00;100250.34;10256047;28;20051;-65
2021/12/07 19:25:51;;;;;;;45.15;20.13;;;;;;;3.46;100.00;100230.94;10291176;28;20595;-65
2021/12/07 19:31:14;;;;;;;42.10;20.02;;;;;;;3.47;100.00;100224.88;10290762;28;20077;-64
2021/12/07 19:36:36;;;;;;;35.45;17.85;;;;;;;3.41;100.00;100194.25;10292391;28;20061;-64
2021/12/07 19:41:58;;;;;;;36.72;18.50;;;;;;;3.57;100.00;100177.19;10304622;28;20416;-64
2021/12/07 19:47:20;;;;;;;33.60;16.17;;;;;;;3.50;100.00;100155.16;10291087;28;20475;-67
2021/12/07 19:52:41;;;;;;;33.08;15.95;;;;;;;3.56;100.00;100161.81;10304705;28;20054;-64
2021/12/07 19:58:04;;;;;;;31.67;15.90;;;;;;;3.55;100.00;100176.41;10305070;28;20066;-64
2021/12/07 20:03:26;;;;;;;29.88;14.23;;;;;;;3.55;100.00;100184.13;10271032;28;20051;-64
2021/12/07 20:08:49;;;;;;;30.92;15.60;;;;;;;3.59;100.00;100188.25;10263324;28;20055;-63
2021/12/07 20:14:17;;;;;;;29.85;14.60;;;;;;;3.57;100.00;100184.91;10278759;28;20055;-64
2021/12/07 20:19:59;;;;;;;33.85;16.65;;;;;;;3.56;100.00;100183.22;10289596;28;20526;-64
2021/12/07 20:25:21;;;;;;;27.75;15.93;;;;;;;3.57;100.00;100135.97;10303405;28;20061;-64
2021/12/07 20:30:42;;;;;;;30.55;14.95;;;;;;;3.63;100.00;100140.84;10277256;28;20051;-63
2021/12/07 20:36:04;;;;;;;38.85;15.40;;;;;;;3.55;100.00;100144.69;10303278;28;20043;-63
2021/12/07 20:41:26;;;;;;;27.83;13.35;;;;;;;3.62;100.00;100136.59;10288767;28;20165;-63
2021/12/07 20:46:51;;;;;;;26.55;12.43;;;;;;;3.49;100.00;100120.03;10301964;28;20043;-65
2021/12/07 20:52:13;;;;;;;31.80;12.50;;;;;;;3.38;100.00;100088.78;10302765;28;20061;-65
2021/12/07 20:57:35;;;;;;;28.35;12.13;;;;;;;3.45;99.88;100077.28;10301815;28;20306;-63
2021/12/07 21:02:57;;;;;;;21.25;11.13;;;;;;;3.42;100.00;100097.22;10302632;28;20054;-64
2021/12/07 21:08:19;;;;;;;27.67;11.43;;;;;;;3.39;100.00;100076.75;10288560;28;20051;-64
2021/12/07 21:13:41;;;;;;;22.30;11.02;;;;;;;3.31;100.00;100053.94;10296154;28;20059;-64
2021/12/07 21:19:03;;;;;;;21.80;10.65;;;;;;;3.34;100.00;100027.19;10289428;28;20550;-64
2021/12/07 21:24:25;;;;;;;18.42;9.35;;;;;;;3.37;100.00;99998.72;10301212;28;20057;-65
2021/12/07 21:29:46;;;;;;;18.02;9.20;;;;;;;3.41;100.00;99975.31;10282493;28;20709;-63
2021/12/07 21:35:09;;;;;;;15.13;8.40;;;;;;;3.37;98.55;99968.63;10300689;28;20058;-64
2021/12/07 21:40:31;;;;;;;15.82;7.20;;;;;;;3.40;97.64;99950.47;10275112;28;20055;-64
2021/12/07 21:45:52;;;;;;;15.07;6.97;;;;;;;3.40;98.15;99935.00;10300931;28;20050;-64
2021/12/07 21:51:14;;;;;;;14.20;6.68;;;;;;;3.39;98.83;99928.19;10276815;28;20055;-64
2021/12/07 21:56:38;;;;;;;14.00;6.45;;;;;;;3.44;98.80;99908.19;10294304;28;20403;-64
2021/12/07 22:02:00;;;;;;;15.23;7.40;;;;;;;3.42;99.50;99917.75;10288171;28;20054;-64
2021/12/07 22:07:22;;;;;;;16.95;7.20;;;;;;;3.47;98.31;99920.94;10301819;28;20047;-63
2021/12/07 22:12:45;;;;;;;16.30;7.20;;;;;;;3.55;99.03;99897.38;10295631;28;20117;-63
2021/12/07 22:18:07;;;;;;;17.42;7.25;;;;;;;3.52;96.84;99908.63;10295007;28;20069;-63
2021/12/07 22:23:32;;;;;;;15.55;7.15;;;;;;;3.46;96.82;99921.00;10295393;28;20150;-63
2021/12/07 22:28:55;;;;;;;14.68;7.28;;;;;;;3.41;98.22;99905.78;10307986;28;20047;-64
2021/12/07 22:34:16;;;;;;;14.68;6.85;;;;;;;3.44;97.33;99910.78;10288291;28;20059;-65
2021/12/07 22:39:38;;;;;;;16.30;7.35;;;;;;;3.43;99.02;99892.81;10275334;28;20058;-65
2021/12/07 22:44:59;;;;;;;13.65;7.10;;;;;;;3.43;97.97;99867.91;10269569;28;20047;-63
2021/12/07 22:50:22;;;;;;;17.02;7.13;;;;;;;3.36;99.08;99851.09;10272058;28;20059;-63
2021/12/07 22:55:44;;;;;;;15.02;7.20;;;;;;;3.38;98.90;99844.13;10274386;28;20053;-63
2021/12/07 23:01:09;;;;;;;13.95;6.40;;;;;;;3.39;98.62;99830.34;10282540;28;20077;-65
2021/12/07 23:06:35;;;;;;;18.40;7.47;;;;;;;3.41;98.64;99818.22;10287578;28;20562;-63
2021/12/07 23:11:57;;;;;;;16.35;7.30;;;;;;;3.41;97.79;99792.47;10287693;28;20067;-63
2021/12/07 23:17:19;;;;;;;16.17;7.22;;;;;;;3.32;98.41;99772.34;10297484;28;20043;-65
2021/12/07 23:22:43;;;;;;;14.05;6.75;;;;;;;3.34;97.92;99765.38;10269515;28;20057;-63
2021/12/07 23:28:06;;;;;;;12.05;6.75;;;;;;;3.36;96.83;99757.56;10267945;28;20050;-63
2021/12/07 23:33:30;;;;;;;17.20;6.88;;;;;;;3.34;97.22;99734.47;10281724;28;20080;-63
2021/12/07 23:38:54;;;;;;;13.00;6.30;;;;;;;3.35;98.04;99728.38;10262348;28;20055;-62
2021/12/07 23:44:16;;;;;;;12.48;6.75;;;;;;;3.39;96.78;99742.78;10292686;28;20535;-64
2021/12/07 23:49:39;;;;;;;12.35;6.45;;;;;;;3.35;96.22;99730.16;10262331;28;20050;-63
2021/12/07 23:55:00;;;;;;;11.05;6.47;;;;;;;3.37;96.27;99698.25;10263993;28;20046;-63
